< Typhoon 197710 1977 Season Typhoon 197712 >
Typhoon 197711 (EMMA)
General InformationTrack Information on Google MapsDetailed Wind Information || Disaster Info.ResourceGoogle EarthGE AnimationAtom FeedGeoJSON
Detalied Best Track (Time Zone = UTC)
Year Month Day Hour Lat. Long. Pressure (hPa) Wind (kt) Class Image Chart
1977 9 12 06 15.0 144.5 1004 0 2 -- Chart
1977 9 12 12 15.6 144.5 1004 0 2 -- Chart
1977 9 12 18 16.1 144.5 1004 0 2 -- Chart
1977 9 13 00 16.6 144.5 1000 0 2 -- Chart
1977 9 13 06 17.1 144.4 1000 0 2 -- Chart
1977 9 13 12 17.6 144.3 998 0 2 -- Chart
1977 9 13 18 18.0 144.2 996 0 2 -- Chart
1977 9 14 00 18.5 144.0 996 0 2 -- Chart
1977 9 14 06 19.0 143.7 992 0 2 -- Chart
1977 9 14 12 19.6 143.4 990 40 3 -- Chart
1977 9 14 18 20.0 143.2 990 45 3 -- Chart
1977 9 15 00 20.5 143.0 985 55 4 -- Chart
1977 9 15 06 21.7 143.0 980 55 4 -- Chart
1977 9 15 12 22.7 143.3 975 60 4 -- Chart
1977 9 15 18 23.6 143.5 975 55 4 -- Chart
1977 9 16 00 24.6 143.7 975 55 4 -- Chart
1977 9 16 06 25.4 144.1 975 55 4 -- Chart
1977 9 16 12 26.1 144.3 970 50 4 -- Chart
1977 9 16 18 26.7 144.5 970 50 4 -- Chart
1977 9 17 00 27.3 144.6 965 55 4 -- Chart
1977 9 17 06 27.9 144.4 970 50 4 -- Chart
1977 9 17 12 28.4 144.0 970 50 4 -- Chart
1977 9 17 18 28.8 143.5 970 50 4 -- Chart
1977 9 18 00 29.3 143.0 970 50 4 -- Chart
1977 9 18 06 29.6 141.8 970 50 4 -- Chart
1977 9 18 12 30.2 141.0 970 50 4 -- Chart
1977 9 18 18 31.5 140.2 975 50 4 -- Chart
1977 9 19 00 32.5 140.2 975 50 4 -- Chart
1977 9 19 06 33.9 140.3 980 45 3 -- Chart
1977 9 19 12 35.9 141.7 980 45 3 -- Chart
1977 9 19 18 38.0 143.2 980 45 3 -- Chart
1977 9 20 00 40.3 145.0 980 45 3 -- Chart
1977 9 20 06 42.6 147.4 980 45 3 -- Chart
1977 9 20 12 44.6 150.9 980 45 3 -- Chart
1977 9 20 18 47.5 155.2 980 45 3 -- Chart
1977 9 21 00 50.0 160.0 980 45 3 -- Chart
1977 9 21 06 55.0 164.0 988 0 6 -- Chart
1977 9 21 12 58.0 165.0 988 0 6 -- Chart
1977 9 21 18 59.0 168.0 992 0 6 -- Chart
Japan Meteorological Agency Best Track Data | Correction Date : 1992-10-21
< Typhoon 197710 1977 Season Typhoon 197712 >

Help